sensor_id;sensor_type;location;lat;lon;timestamp;pressure;altitude;pressure_sealevel;temperature;humidity
62402;BME280;48440;51.224;22.506;2022-12-20T00:00:00;100239.88;;;-3.41;74.14
62402;BME280;48440;51.224;22.506;2022-12-20T00:02:25;100239.41;;;-3.36;74.39
62402;BME280;48440;51.224;22.506;2022-12-20T00:04:51;100228.50;;;-3.33;74.12
62402;BME280;48440;51.224;22.506;2022-12-20T00:07:16;100230.19;;;-3.32;74.29
62402;BME280;48440;51.224;22.506;2022-12-20T00:09:42;100235.34;;;-3.31;74.43
62402;BME280;48440;51.224;22.506;2022-12-20T00:12:07;100226.41;;;-3.30;74.28
62402;BME280;48440;51.224;22.506;2022-12-20T00:14:33;100218.72;;;-3.23;74.24
62402;BME280;48440;51.224;22.506;2022-12-20T00:16:58;100217.72;;;-3.22;74.26
62402;BME280;48440;51.224;22.506;2022-12-20T00:19:24;100210.59;;;-3.22;74.47
62402;BME280;48440;51.224;22.506;2022-12-20T00:21:49;100221.63;;;-3.17;74.16
62402;BME280;48440;51.224;22.506;2022-12-20T00:24:15;100212.69;;;-3.16;74.39
62402;BME280;48440;51.224;22.506;2022-12-20T00:26:40;100216.88;;;-3.13;74.30
62402;BME280;48440;51.224;22.506;2022-12-20T00:29:06;100208.59;;;-3.10;74.12
62402;BME280;48440;51.224;22.506;2022-12-20T00:31:32;100208.44;;;-3.09;74.28
62402;BME280;48440;51.224;22.506;2022-12-20T00:33:59;100210.53;;;-3.02;74.38
62402;BME280;48440;51.224;22.506;2022-12-20T00:36:26;100204.94;;;-2.99;74.53
62402;BME280;48440;51.224;22.506;2022-12-20T00:38:54;100203.13;;;-2.99;74.49
62402;BME280;48440;51.224;22.506;2022-12-20T00:41:22;100197.66;;;-2.97;74.68
62402;BME280;48440;51.224;22.506;2022-12-20T00:43:48;100197.50;;;-2.96;74.97
62402;BME280;48440;51.224;22.506;2022-12-20T00:46:15;100188.56;;;-2.95;74.84
62402;BME280;48440;51.224;22.506;2022-12-20T00:48:41;100194.72;;;-2.94;74.66
62402;BME280;48440;51.224;22.506;2022-12-20T00:51:16;100191.06;;;-2.93;74.91
62402;BME280;48440;51.224;22.506;2022-12-20T00:53:45;100187.16;;;-2.89;74.93
62402;BME280;48440;51.224;22.506;2022-12-20T00:56:10;100187.84;;;-2.87;75.00
62402;BME280;48440;51.224;22.506;2022-12-20T00:58:38;100183.66;;;-2.90;74.86
62402;BME280;48440;51.224;22.506;2022-12-20T01:01:14;100183.19;;;-2.85;74.91
62402;BME280;48440;51.224;22.506;2022-12-20T01:03:40;100180.53;;;-2.85;75.60
62402;BME280;48440;51.224;22.506;2022-12-20T01:06:06;100175.38;;;-2.87;75.07
62402;BME280;48440;51.224;22.506;2022-12-20T01:08:31;100174.56;;;-2.87;76.21
62402;BME280;48440;51.224;22.506;2022-12-20T01:11:02;100164.78;;;-2.87;76.25
62402;BME280;48440;51.224;22.506;2022-12-20T01:13:29;100173.25;;;-2.83;76.04
62402;BME280;48440;51.224;22.506;2022-12-20T01:15:55;100176.59;;;-2.81;76.40
62402;BME280;48440;51.224;22.506;2022-12-20T01:18:21;100166.38;;;-2.76;76.45
62402;BME280;48440;51.224;22.506;2022-12-20T01:20:47;100171.53;;;-2.75;76.37
62402;BME280;48440;51.224;22.506;2022-12-20T01:23:13;100168.72;;;-2.73;76.93
62402;BME280;48440;51.224;22.506;2022-12-20T01:25:38;100158.78;;;-2.71;77.15
62402;BME280;48440;51.224;22.506;2022-12-20T01:28:04;100152.19;;;-2.67;77.04
62402;BME280;48440;51.224;22.506;2022-12-20T01:30:29;100149.94;;;-2.62;76.92
62402;BME280;48440;51.224;22.506;2022-12-20T01:32:55;100140.97;;;-2.61;77.30
62402;BME280;48440;51.224;22.506;2022-12-20T01:35:20;100144.16;;;-2.57;77.09
62402;BME280;48440;51.224;22.506;2022-12-20T01:37:46;100141.19;;;-2.54;77.28
62402;BME280;48440;51.224;22.506;2022-12-20T01:40:12;100143.69;;;-2.53;77.49
62402;BME280;48440;51.224;22.506;2022-12-20T01:42:37;100134.59;;;-2.50;77.08
62402;BME280;48440;51.224;22.506;2022-12-20T01:45:07;100133.31;;;-2.46;77.57
62402;BME280;48440;51.224;22.506;2022-12-20T01:47:35;100138.47;;;-2.45;77.61
62402;BME280;48440;51.224;22.506;2022-12-20T01:50:03;100136.50;;;-2.43;77.47
62402;BME280;48440;51.224;22.506;2022-12-20T01:52:40;100129.38;;;-2.42;77.64
62402;BME280;48440;51.224;22.506;2022-12-20T01:55:26;100130.44;;;-2.35;77.67
62402;BME280;48440;51.224;22.506;2022-12-20T01:57:56;100135.75;;;-2.35;77.61
62402;BME280;48440;51.224;22.506;2022-12-20T02:00:23;100127.78;;;-2.35;77.89
62402;BME280;48440;51.224;22.506;2022-12-20T02:02:49;100133.59;;;-2.31;77.67
62402;BME280;48440;51.224;22.506;2022-12-20T02:05:18;100130.78;;;-2.30;77.62
62402;BME280;48440;51.224;22.506;2022-12-20T02:07:48;100119.84;;;-2.27;77.68
62402;BME280;48440;51.224;22.506;2022-12-20T02:10:14;100131.19;;;-2.25;77.72
62402;BME280;48440;51.224;22.506;2022-12-20T02:12:45;100125.56;;;-2.22;77.52
62402;BME280;48440;51.224;22.506;2022-12-20T02:15:23;100125.41;;;-2.20;77.84
62402;BME280;48440;51.224;22.506;2022-12-20T02:21:07;100120.47;;;-2.15;78.18
62402;BME280;48440;51.224;22.506;2022-12-20T02:24:17;100108.00;;;-2.15;78.33
62402;BME280;48440;51.224;22.506;2022-12-20T02:32:03;100097.25;;;-2.05;78.90
62402;BME280;48440;51.224;22.506;2022-12-20T02:34:35;100102.72;;;-2.07;79.20
62402;BME280;48440;51.224;22.506;2022-12-20T02:37:02;100098.25;;;-2.06;79.51
62402;BME280;48440;51.224;22.506;2022-12-20T02:39:29;100091.25;;;-2.07;79.43
62402;BME280;48440;51.224;22.506;2022-12-20T02:42:00;100093.75;;;-2.06;79.61
62402;BME280;48440;51.224;22.506;2022-12-20T02:44:29;100091.09;;;-2.06;80.06
62402;BME280;48440;51.224;22.506;2022-12-20T02:47:20;100088.00;;;-2.01;79.78
62402;BME280;48440;51.224;22.506;2022-12-20T02:49:48;100078.88;;;-1.98;80.11
62402;BME280;48440;51.224;22.506;2022-12-20T02:52:15;100072.56;;;-1.97;80.20
62402;BME280;48440;51.224;22.506;2022-12-20T02:54:42;100073.38;;;-1.97;80.21
62402;BME280;48440;51.224;22.506;2022-12-20T02:57:18;100072.25;;;-1.94;80.16
62402;BME280;48440;51.224;22.506;2022-12-20T03:00:16;100080.22;;;-1.94;80.33
62402;BME280;48440;51.224;22.506;2022-12-20T03:02:41;100071.78;;;-1.90;80.01
62402;BME280;48440;51.224;22.506;2022-12-20T03:05:26;100070.94;;;-1.90;80.27
62402;BME280;48440;51.224;22.506;2022-12-20T03:07:53;100065.47;;;-1.89;80.60
62402;BME280;48440;51.224;22.506;2022-12-20T03:10:19;100058.16;;;-1.87;80.87
62402;BME280;48440;51.224;22.506;2022-12-20T03:12:45;100058.84;;;-1.85;80.89
62402;BME280;48440;51.224;22.506;2022-12-20T03:15:11;100056.88;;;-1.83;80.86
62402;BME280;48440;51.224;22.506;2022-12-20T03:17:36;100060.19;;;-1.81;81.18
62402;BME280;48440;51.224;22.506;2022-12-20T03:20:03;100052.19;;;-1.81;81.46
62402;BME280;48440;51.224;22.506;2022-12-20T03:22:31;100053.03;;;-1.80;82.05
62402;BME280;48440;51.224;22.506;2022-12-20T03:24:58;100054.69;;;-1.79;82.22
62402;BME280;48440;51.224;22.506;2022-12-20T03:27:23;100046.56;;;-1.78;82.39
62402;BME280;48440;51.224;22.506;2022-12-20T03:29:52;100048.06;;;-1.75;82.04
62402;BME280;48440;51.224;22.506;2022-12-20T03:32:18;100039.41;;;-1.77;82.06
62402;BME280;48440;51.224;22.506;2022-12-20T03:34:44;100032.13;;;-1.75;82.37
62402;BME280;48440;51.224;22.506;2022-12-20T03:37:10;100048.25;;;-1.77;82.53
62402;BME280;48440;51.224;22.506;2022-12-20T03:39:35;100029.28;;;-1.74;82.18
62402;BME280;48440;51.224;22.506;2022-12-20T03:42:01;100037.28;;;-1.74;82.43
62402;BME280;48440;51.224;22.506;2022-12-20T03:44:28;100033.78;;;-1.74;82.84
62402;BME280;48440;51.224;22.506;2022-12-20T03:46:53;100035.75;;;-1.76;83.16
62402;BME280;48440;51.224;22.506;2022-12-20T03:49:19;100030.28;;;-1.75;83.23
62402;BME280;48440;51.224;22.506;2022-12-20T03:51:44;100039.09;;;-1.74;83.51
62402;BME280;48440;51.224;22.506;2022-12-20T03:54:10;100035.59;;;-1.75;83.39
62402;BME280;48440;51.224;22.506;2022-12-20T03:56:35;100029.44;;;-1.75;83.84
62402;BME280;48440;51.224;22.506;2022-12-20T03:59:01;100034.47;;;-1.72;83.30
62402;BME280;48440;51.224;22.506;2022-12-20T04:01:28;100030.66;;;-1.69;83.51
62402;BME280;48440;51.224;22.506;2022-12-20T04:03:54;100024.03;;;-1.65;83.28
62402;BME280;48440;51.224;22.506;2022-12-20T04:06:21;100022.88;;;-1.63;83.23
62402;BME280;48440;51.224;22.506;2022-12-20T04:08:47;100015.56;;;-1.61;83.19
62402;BME280;48440;51.224;22.506;2022-12-20T04:11:13;100019.22;;;-1.62;83.26
62402;BME280;48440;51.224;22.506;2022-12-20T04:13:48;100011.06;;;-1.60;83.44
62402;BME280;48440;51.224;22.506;2022-12-20T04:16:16;100017.41;;;-1.61;83.22
62402;BME280;48440;51.224;22.506;2022-12-20T04:18:42;100019.59;;;-1.57;83.47
62402;BME280;48440;51.224;22.506;2022-12-20T04:21:09;100019.59;;;-1.57;83.52
62402;BME280;48440;51.224;22.506;2022-12-20T04:23:36;100009.78;;;-1.56;83.36
62402;BME280;48440;51.224;22.506;2022-12-20T04:26:04;100013.22;;;-1.56;83.58
62402;BME280;48440;51.224;22.506;2022-12-20T04:28:30;99991.78;;;-1.54;83.99
62402;BME280;48440;51.224;22.506;2022-12-20T04:30:56;99989.78;;;-1.52;83.52
62402;BME280;48440;51.224;22.506;2022-12-20T04:33:22;99982.66;;;-1.52;83.58
62402;BME280;48440;51.224;22.506;2022-12-20T04:35:48;99987.81;;;-1.50;83.62
62402;BME280;48440;51.224;22.506;2022-12-20T04:38:14;99986.13;;;-1.51;83.67
62402;BME280;48440;51.224;22.506;2022-12-20T04:40:40;99976.31;;;-1.51;84.17
62402;BME280;48440;51.224;22.506;2022-12-20T04:43:06;99979.50;;;-1.47;84.14
62402;BME280;48440;51.224;22.506;2022-12-20T04:45:32;99977.69;;;-1.47;83.87
62402;BME280;48440;51.224;22.506;2022-12-20T04:47:58;99982.69;;;-1.44;84.32
62402;BME280;48440;51.224;22.506;2022-12-20T04:50:24;99971.19;;;-1.44;84.16
62402;BME280;48440;51.224;22.506;2022-12-20T04:52:49;99964.56;;;-1.40;84.04
62402;BME280;48440;51.224;22.506;2022-12-20T04:55:38;99969.22;;;-1.42;84.39
62402;BME280;48440;51.224;22.506;2022-12-20T04:58:05;99968.88;;;-1.39;84.61
62402;BME280;48440;51.224;22.506;2022-12-20T05:00:31;99966.06;;;-1.38;84.63
62402;BME280;48440;51.224;22.506;2022-12-20T05:02:57;99965.22;;;-1.38;84.76
62402;BME280;48440;51.224;22.506;2022-12-20T05:05:23;99964.75;;;-1.33;84.38
62402;BME280;48440;51.224;22.506;2022-12-20T05:07:49;99954.78;;;-1.31;84.07
62402;BME280;48440;51.224;22.506;2022-12-20T05:10:15;99959.09;;;-1.30;84.11
62402;BME280;48440;51.224;22.506;2022-12-20T05:12:41;99965.59;;;-1.33;84.33
62402;BME280;48440;51.224;22.506;2022-12-20T05:15:06;99966.06;;;-1.29;84.34
62402;BME280;48440;51.224;22.506;2022-12-20T05:17:33;99945.59;;;-1.29;84.69
62402;BME280;48440;51.224;22.506;2022-12-20T05:19:58;99934.78;;;-1.27;84.98
62402;BME280;48440;51.224;22.506;2022-12-20T05:22:24;99914.97;;;-1.25;85.00
62402;BME280;48440;51.224;22.506;2022-12-20T05:25:09;99909.50;;;-1.23;84.74
62402;BME280;48440;51.224;22.506;2022-12-20T05:27:54;99912.81;;;-1.21;84.75
62402;BME280;48440;51.224;22.506;2022-12-20T05:30:19;99893.03;;;-1.19;84.92
62402;BME280;48440;51.224;22.506;2022-12-20T05:32:44;99901.00;;;-1.19;84.85
62402;BME280;48440;51.224;22.506;2022-12-20T05:35:10;99912.50;;;-1.18;85.06
62402;BME280;48440;51.224;22.506;2022-12-20T05:37:35;99906.03;;;-1.16;85.04
62402;BME280;48440;51.224;22.506;2022-12-20T05:40:01;99913.19;;;-1.16;84.94
62402;BME280;48440;51.224;22.506;2022-12-20T05:42:28;99910.50;;;-1.16;85.45
62402;BME280;48440;51.224;22.506;2022-12-20T05:44:53;99905.34;;;-1.18;85.51
62402;BME280;48440;51.224;22.506;2022-12-20T05:47:19;99904.19;;;-1.15;85.09
62402;BME280;48440;51.224;22.506;2022-12-20T05:49:44;99896.03;;;-1.14;84.95
62402;BME280;48440;51.224;22.506;2022-12-20T05:52:10;99909.69;;;-1.09;84.64
62402;BME280;48440;51.224;22.506;2022-12-20T05:54:35;99916.03;;;-1.10;84.76
62402;BME280;48440;51.224;22.506;2022-12-20T05:57:01;99919.34;;;-1.08;84.73
62402;BME280;48440;51.224;22.506;2022-12-20T05:59:26;99917.69;;;-1.09;84.98
62402;BME280;48440;51.224;22.506;2022-12-20T06:01:52;99920.03;;;-1.06;84.68
62402;BME280;48440;51.224;22.506;2022-12-20T06:04:17;99927.66;;;-1.03;85.02
62402;BME280;48440;51.224;22.506;2022-12-20T06:06:42;99926.81;;;-1.03;84.73
62402;BME280;48440;51.224;22.506;2022-12-20T06:09:08;99910.50;;;-1.00;85.07
62402;BME280;48440;51.224;22.506;2022-12-20T06:11:33;99907.00;;;-1.00;85.04
62402;BME280;48440;51.224;22.506;2022-12-20T06:13:59;99917.69;;;-1.00;84.85
62402;BME280;48440;51.224;22.506;2022-12-20T06:16:24;99917.34;;;-0.97;84.80
62402;BME280;48440;51.224;22.506;2022-12-20T06:18:50;99912.53;;;-0.94;84.77
62402;BME280;48440;51.224;22.506;2022-12-20T06:21:16;99911.38;;;-0.91;84.81
62402;BME280;48440;51.224;22.506;2022-12-20T06:23:42;99910.84;;;-0.95;84.40
62402;BME280;48440;51.224;22.506;2022-12-20T06:26:07;99905.53;;;-0.95;84.78
62402;BME280;48440;51.224;22.506;2022-12-20T06:28:34;99905.38;;;-0.93;84.75
62402;BME280;48440;51.224;22.506;2022-12-20T06:31:06;99895.22;;;-0.90;84.96
62402;BME280;48440;51.224;22.506;2022-12-20T06:33:32;99897.88;;;-0.90;84.84
62402;BME280;48440;51.224;22.506;2022-12-20T06:35:57;99900.38;;;-0.88;84.54
62402;BME280;48440;51.224;22.506;2022-12-20T06:38:23;99898.53;;;-0.88;84.43
62402;BME280;48440;51.224;22.506;2022-12-20T06:40:49;99898.53;;;-0.88;84.55
62402;BME280;48440;51.224;22.506;2022-12-20T06:43:15;99901.88;;;-0.86;84.29
62402;BME280;48440;51.224;22.506;2022-12-20T06:45:40;99897.22;;;-0.84;84.69
62402;BME280;48440;51.224;22.506;2022-12-20T06:48:06;99906.38;;;-0.78;84.02
62402;BME280;48440;51.224;22.506;2022-12-20T06:50:31;99911.72;;;-0.78;84.13
62402;BME280;48440;51.224;22.506;2022-12-20T06:52:57;99909.50;;;-0.75;84.37
62402;BME280;48440;51.224;22.506;2022-12-20T06:55:22;99914.50;;;-0.72;84.05
62402;BME280;48440;51.224;22.506;2022-12-20T06:57:48;99923.69;;;-0.66;84.21
62402;BME280;48440;51.224;22.506;2022-12-20T07:00:14;99920.00;;;-0.65;83.69
62402;BME280;48440;51.224;22.506;2022-12-20T07:02:39;99925.19;;;-0.63;83.60
62402;BME280;48440;51.224;22.506;2022-12-20T07:05:05;99920.53;;;-0.61;83.61
62402;BME280;48440;51.224;22.506;2022-12-20T07:07:31;99918.69;;;-0.61;83.43
62402;BME280;48440;51.224;22.506;2022-12-20T07:09:56;99912.03;;;-0.57;83.19
62402;BME280;48440;51.224;22.506;2022-12-20T07:12:22;99912.53;;;-0.53;83.10
62402;BME280;48440;51.224;22.506;2022-12-20T07:14:48;99913.16;;;-0.51;83.26
62402;BME280;48440;51.224;22.506;2022-12-20T07:17:13;99921.16;;;-0.51;82.90
62402;BME280;48440;51.224;22.506;2022-12-20T07:19:39;99916.31;;;-0.48;82.67
62402;BME280;48440;51.224;22.506;2022-12-20T07:22:05;99917.31;;;-0.49;83.11
62402;BME280;48440;51.224;22.506;2022-12-20T07:24:31;99910.81;;;-0.46;82.70
62402;BME280;48440;51.224;22.506;2022-12-20T07:26:57;99913.31;;;-0.45;82.54
62402;BME280;48440;51.224;22.506;2022-12-20T07:29:22;99916.31;;;-0.40;82.22
62402;BME280;48440;51.224;22.506;2022-12-20T07:31:50;99919.66;;;-0.38;82.33
62402;BME280;48440;51.224;22.506;2022-12-20T07:34:15;99919.47;;;-0.36;82.19
62402;BME280;48440;51.224;22.506;2022-12-20T07:36:41;99916.66;;;-0.35;82.42
62402;BME280;48440;51.224;22.506;2022-12-20T07:39:07;99912.16;;;-0.34;81.92
62402;BME280;48440;51.224;22.506;2022-12-20T07:41:33;99914.47;;;-0.31;82.15
62402;BME280;48440;51.224;22.506;2022-12-20T07:43:59;99922.97;;;-0.27;81.60
62402;BME280;48440;51.224;22.506;2022-12-20T07:46:25;99919.66;;;-0.29;82.21
62402;BME280;48440;51.224;22.506;2022-12-20T07:48:51;99925.81;;;-0.29;81.80
62402;BME280;48440;51.224;22.506;2022-12-20T07:51:25;99919.66;;;-0.29;81.69
62402;BME280;48440;51.224;22.506;2022-12-20T07:54:01;99914.97;;;-0.27;81.78
62402;BME280;48440;51.224;22.506;2022-12-20T07:56:31;99923.63;;;-0.25;81.52
62402;BME280;48440;51.224;22.506;2022-12-20T07:58:59;99913.44;;;-0.22;81.45
62402;BME280;48440;51.224;22.506;2022-12-20T08:01:26;99916.59;;;-0.18;81.22
62402;BME280;48440;51.224;22.506;2022-12-20T08:03:59;99909.09;;;-0.15;81.21
62402;BME280;48440;51.224;22.506;2022-12-20T08:06:27;99911.41;;;-0.12;81.23
62402;BME280;48440;51.224;22.506;2022-12-20T08:08:55;99901.25;;;-0.08;80.80
62402;BME280;48440;51.224;22.506;2022-12-20T08:11:23;99900.72;;;-0.04;80.81
62402;BME280;48440;51.224;22.506;2022-12-20T08:13:49;99901.69;;;0.04;80.42
62402;BME280;48440;51.224;22.506;2022-12-20T08:16:16;99910.69;;;0.11;79.44
62402;BME280;48440;51.224;22.506;2022-12-20T08:18:41;99915.31;;;0.17;79.23
62402;BME280;48440;51.224;22.506;2022-12-20T08:21:07;99904.47;;;0.18;79.42
62402;BME280;48440;51.224;22.506;2022-12-20T08:23:33;99895.97;;;0.23;79.17
62402;BME280;48440;51.224;22.506;2022-12-20T08:26:00;99898.06;;;0.27;78.89
62402;BME280;48440;51.224;22.506;2022-12-20T08:28:25;99896.91;;;0.30;78.31
62402;BME280;48440;51.224;22.506;2022-12-20T08:30:51;99899.88;;;0.35;77.81
62402;BME280;48440;51.224;22.506;2022-12-20T08:33:16;99899.22;;;0.33;77.80
62402;BME280;48440;51.224;22.506;2022-12-20T08:35:42;99907.56;;;0.38;77.78
62402;BME280;48440;51.224;22.506;2022-12-20T08:38:07;99905.03;;;0.45;77.28
62402;BME280;48440;51.224;22.506;2022-12-20T08:40:33;99903.19;;;0.45;76.67
62402;BME280;48440;51.224;22.506;2022-12-20T08:42:58;99899.44;;;0.54;77.15
62402;BME280;48440;51.224;22.506;2022-12-20T08:45:24;99895.59;;;0.57;76.45
62402;BME280;48440;51.224;22.506;2022-12-20T08:47:49;99897.88;;;0.68;75.95
62402;BME280;48440;51.224;22.506;2022-12-20T08:50:15;99902.91;;;1.09;75.26
62402;BME280;48440;51.224;22.506;2022-12-20T08:52:40;99904.09;;;1.81;73.23
62402;BME280;48440;51.224;22.506;2022-12-20T08:55:06;99892.06;;;2.72;69.58
62402;BME280;48440;51.224;22.506;2022-12-20T08:57:31;99896.41;;;3.37;66.91
62402;BME280;48440;51.224;22.506;2022-12-20T08:59:57;99891.19;;;3.57;64.77
62402;BME280;48440;51.224;22.506;2022-12-20T09:02:22;99895.56;;;3.64;64.81
62402;BME280;48440;51.224;22.506;2022-12-20T09:04:48;99892.66;;;3.94;63.23
62402;BME280;48440;51.224;22.506;2022-12-20T09:07:13;99894.16;;;3.40;64.50
62402;BME280;48440;51.224;22.506;2022-12-20T09:09:39;99883.00;;;2.94;65.75
62402;BME280;48440;51.224;22.506;2022-12-20T09:12:04;99883.13;;;2.65;66.65
62402;BME280;48440;51.224;22.506;2022-12-20T09:14:32;99888.25;;;2.45;67.47
62402;BME280;48440;51.224;22.506;2022-12-20T09:16:57;99888.50;;;3.29;65.69
62402;BME280;48440;51.224;22.506;2022-12-20T09:19:23;99879.69;;;4.38;62.32
62402;BME280;48440;51.224;22.506;2022-12-20T09:21:48;99885.00;;;4.99;60.04
62402;BME280;48440;51.224;22.506;2022-12-20T09:24:13;99873.81;;;5.82;57.87
62402;BME280;48440;51.224;22.506;2022-12-20T09:26:39;99868.63;;;6.58;55.31
62402;BME280;48440;51.224;22.506;2022-12-20T09:29:05;99871.72;;;6.99;53.62
62402;BME280;48440;51.224;22.506;2022-12-20T09:31:30;99878.09;;;7.05;52.90
62402;BME280;48440;51.224;22.506;2022-12-20T09:33:57;99866.63;;;6.85;52.98
62402;BME280;48440;51.224;22.506;2022-12-20T09:36:24;99866.44;;;6.79;53.19
62402;BME280;48440;51.224;22.506;2022-12-20T09:38:51;99864.09;;;6.90;52.25
62402;BME280;48440;51.224;22.506;2022-12-20T09:41:42;99872.13;;;7.77;50.31
62402;BME280;48440;51.224;22.506;2022-12-20T09:44:30;99853.50;;;7.69;50.26
62402;BME280;48440;51.224;22.506;2022-12-20T09:47:02;99848.72;;;6.59;52.64
62402;BME280;48440;51.224;22.506;2022-12-20T09:49:30;99855.03;;;5.35;56.12
62402;BME280;48440;51.224;22.506;2022-12-20T10:00:27;99850.25;;;3.20;63.38
62402;BME280;48440;51.224;22.506;2022-12-20T10:02:54;99848.97;;;2.95;64.03
62402;BME280;48440;51.224;22.506;2022-12-20T10:05:44;99836.97;;;2.48;65.99
62402;BME280;48440;51.224;22.506;2022-12-20T10:08:16;99842.63;;;2.38;66.65
62402;BME280;48440;51.224;22.506;2022-12-20T10:10:52;99833.72;;;2.31;66.26
62402;BME280;48440;51.224;22.506;2022-12-20T10:13:52;99837.22;;;2.32;66.59
62402;BME280;48440;51.224;22.506;2022-12-20T10:16:38;99840.09;;;2.30;67.11
62402;BME280;48440;51.224;22.506;2022-12-20T10:19:11;99840.44;;;2.27;66.75
62402;BME280;48440;51.224;22.506;2022-12-20T10:21:50;99828.94;;;2.12;67.45
62402;BME280;48440;51.224;22.506;2022-12-20T10:24:26;99830.91;;;2.03;67.97
62402;BME280;48440;51.224;22.506;2022-12-20T10:26:55;99824.25;;;1.99;68.17
62402;BME280;48440;51.224;22.506;2022-12-20T10:29:21;99830.81;;;1.97;68.20
62402;BME280;48440;51.224;22.506;2022-12-20T10:31:58;99832.47;;;1.98;67.66
62402;BME280;48440;51.224;22.506;2022-12-20T10:34:24;99821.56;;;1.85;67.62
62402;BME280;48440;51.224;22.506;2022-12-20T10:37:10;99820.56;;;1.86;68.17
62402;BME280;48440;51.224;22.506;2022-12-20T10:39:41;99818.53;;;1.88;67.90
62402;BME280;48440;51.224;22.506;2022-12-20T10:42:29;99814.38;;;1.85;67.78
62402;BME280;48440;51.224;22.506;2022-12-20T10:44:58;99809.56;;;1.95;67.59
62402;BME280;48440;51.224;22.506;2022-12-20T10:50:28;99786.81;;;2.42;65.67
62402;BME280;48440;51.224;22.506;2022-12-20T10:58:04;99776.78;;;4.64;58.65
62402;BME280;48440;51.224;22.506;2022-12-20T11:00:32;99787.34;;;5.25;57.06
62402;BME280;48440;51.224;22.506;2022-12-20T11:03:26;99767.00;;;5.49;55.30
62402;BME280;48440;51.224;22.506;2022-12-20T11:05:59;99762.84;;;5.66;55.14
62402;BME280;48440;51.224;22.506;2022-12-20T11:08:27;99771.00;;;6.04;54.37
62402;BME280;48440;51.224;22.506;2022-12-20T11:13:42;99771.44;;;6.01;53.93
62402;BME280;48440;51.224;22.506;2022-12-20T11:16:33;99766.38;;;5.54;54.73
62402;BME280;48440;51.224;22.506;2022-12-20T11:36:36;99770.53;;;3.77;60.07
62402;BME280;48440;51.224;22.506;2022-12-20T11:44:56;99769.56;;;3.97;59.73
62402;BME280;48440;51.224;22.506;2022-12-20T11:53:21;99750.47;;;3.72;60.53
62402;BME280;48440;51.224;22.506;2022-12-20T11:55:51;99753.00;;;3.46;61.11
62402;BME280;48440;51.224;22.506;2022-12-20T11:58:26;99755.25;;;3.36;61.59
62402;BME280;48440;51.224;22.506;2022-12-20T12:00:59;99762.81;;;3.26;62.42
62402;BME280;48440;51.224;22.506;2022-12-20T12:03:38;99760.25;;;3.18;62.98
62402;BME280;48440;51.224;22.506;2022-12-20T12:06:16;99758.78;;;3.09;63.33
62402;BME280;48440;51.224;22.506;2022-12-20T12:09:07;99751.06;;;2.99;63.94
62402;BME280;48440;51.224;22.506;2022-12-20T12:11:41;99752.56;;;2.80;64.94
62402;BME280;48440;51.224;22.506;2022-12-20T12:17:11;99746.34;;;2.52;65.66
62402;BME280;48440;51.224;22.506;2022-12-20T12:19:42;99746.66;;;2.42;65.78
62402;BME280;48440;51.224;22.506;2022-12-20T12:22:17;99758.91;;;2.30;66.38
62402;BME280;48440;51.224;22.506;2022-12-20T12:24:47;99758.63;;;2.25;66.67
62402;BME280;48440;51.224;22.506;2022-12-20T12:27:24;99750.72;;;2.17;67.26
62402;BME280;48440;51.224;22.506;2022-12-20T12:29:52;99745.69;;;2.07;67.78
62402;BME280;48440;51.224;22.506;2022-12-20T12:32:40;99739.41;;;2.00;68.00
62402;BME280;48440;51.224;22.506;2022-12-20T12:46:18;99725.00;;;1.65;68.85
62402;BME280;48440;51.224;22.506;2022-12-20T12:51:32;99728.41;;;1.59;69.83
62402;BME280;48440;51.224;22.506;2022-12-20T13:09:41;99722.63;;;1.41;70.34
62402;BME280;48440;51.224;22.506;2022-12-20T13:14:57;99713.31;;;1.36;69.88
62402;BME280;48440;51.224;22.506;2022-12-20T13:19:52;99719.22;;;1.32;70.38
62402;BME280;48440;51.224;22.506;2022-12-20T13:22:21;99715.69;;;1.31;69.82
62402;BME280;48440;51.224;22.506;2022-12-20T13:25:03;99719.59;;;1.29;69.91
62402;BME280;48440;51.224;22.506;2022-12-20T13:27:48;99724.13;;;1.28;69.87
62402;BME280;48440;51.224;22.506;2022-12-20T13:39:27;99714.88;;;1.16;70.09
62402;BME280;48440;51.224;22.506;2022-12-20T13:43:48;99737.28;;;1.15;70.26
62402;BME280;48440;51.224;22.506;2022-12-20T13:46:23;99742.16;;;1.12;70.27
62402;BME280;48440;51.224;22.506;2022-12-20T13:49:21;99752.38;;;1.08;70.71
62402;BME280;48440;51.224;22.506;2022-12-20T13:51:48;99753.56;;;1.06;70.62
62402;BME280;48440;51.224;22.506;2022-12-20T13:54:17;99758.94;;;1.06;70.74
62402;BME280;48440;51.224;22.506;2022-12-20T13:56:45;99760.16;;;1.03;70.56
62402;BME280;48440;51.224;22.506;2022-12-20T13:59:25;99763.00;;;1.01;70.42
62402;BME280;48440;51.224;22.506;2022-12-20T14:01:54;99753.50;;;0.99;71.00
62402;BME280;48440;51.224;22.506;2022-12-20T14:04:20;99756.81;;;1.01;70.85
62402;BME280;48440;51.224;22.506;2022-12-20T14:06:54;99747.78;;;1.02;70.86
62402;BME280;48440;51.224;22.506;2022-12-20T14:09:36;99736.94;;;1.04;70.77
62402;BME280;48440;51.224;22.506;2022-12-20T14:12:05;99753.75;;;1.04;71.18
62402;BME280;48440;51.224;22.506;2022-12-20T14:14:42;99755.25;;;1.07;70.68
62402;BME280;48440;51.224;22.506;2022-12-20T14:17:23;99764.75;;;1.09;70.73
62402;BME280;48440;51.224;22.506;2022-12-20T14:20:13;99759.56;;;1.08;70.89
62402;BME280;48440;51.224;22.506;2022-12-20T14:25:26;99760.03;;;1.11;70.67
62402;BME280;48440;51.224;22.506;2022-12-20T14:27:53;99764.75;;;1.09;70.86
62402;BME280;48440;51.224;22.506;2022-12-20T14:32:51;99756.06;;;1.07;70.90
62402;BME280;48440;51.224;22.506;2022-12-20T14:35:20;99749.72;;;1.08;70.57
62402;BME280;48440;51.224;22.506;2022-12-20T14:37:58;99752.38;;;1.08;70.98
62402;BME280;48440;51.224;22.506;2022-12-20T14:40:25;99746.56;;;1.05;70.90
62402;BME280;48440;51.224;22.506;2022-12-20T14:42:51;99757.84;;;1.00;70.99
62402;BME280;48440;51.224;22.506;2022-12-20T14:45:22;99751.31;;;1.02;70.65
62402;BME280;48440;51.224;22.506;2022-12-20T14:50:27;99754.16;;;1.01;70.60
62402;BME280;48440;51.224;22.506;2022-12-20T14:52:53;99759.69;;;0.99;70.89